• Join FlightAware (Why Join?)
  • Login
  • US Flag 
02:46AM EDT


 

Airport Tracker/Info


-or-


 

Live Flight TrackerFlight Track Log ✈ SWA1423 ✈ 20-Apr-2013 ✈ KTPA - KMDW

Flight Track Log - Related Links

Times and Time Zones

All times are in EDT time to prevent confusion due to time zone crossing. See the SWA1423 flight status page for this flight to view local times or setup timezone preferences in your user account.

Time Position Orientation Groundspeed Altitude Reporting Facility
EDT Latitude Longitude Course Direction KTS MPH feet Rate Location/Type
07:55PM 28.0000 -82.5333 360° North 149 171 700  Level Tampa TRACON
07:56PM 28.0333 -82.5333 360° North 207 238 2,300 2,400 Climbing Tampa TRACON
07:58PM 28.1244 -82.5656 343° North 244 281 6,400 2,820 Climbing Jacksonville Center
07:59PM 28.1997 -82.6053 335° Northwest 251 289 9,600 2,520 Climbing Jacksonville Center
08:00PM 28.2769 -82.6497 333° Northwest 278 320 11,500 2,460 Climbing Jacksonville Center
08:01PM 28.3625 -82.6992 333° Northwest 317 365 14,600 2,880 Climbing Jacksonville Center
08:02PM 28.4483 -82.7439 335° Northwest 331 381 17,400 2,160 Climbing Jacksonville Center
08:03PM 28.5358 -82.7933 334° Northwest 342 394 19,000 1,800 Climbing Jacksonville Center
08:04PM 28.6383 -82.8311 342° North 360 414 21,000 1,920 Climbing Jacksonville Center
08:05PM 28.7383 -82.8500 351° North 385 443 22,900 1,800 Climbing Jacksonville Center
08:06PM 28.8533 -82.8783 348° North 400 460 24,600 1,500 Climbing Jacksonville Center
08:07PM 28.9700 -82.9044 349° North 419 482 26,000 1,740 Climbing Jacksonville Center
08:08PM 29.0911 -82.9306 349° North 431 496 28,100 1,560 Climbing Jacksonville Center
08:09PM 29.2122 -82.9592 348° North 431 496 29,200 1,200 Climbing Jacksonville Center
08:10PM 29.3353 -82.9878 349° North 436 502 30,500 1,620 Climbing Jacksonville Center
08:11PM 29.4586 -83.0167 348° North 447 514 32,500 1,560 Climbing Jacksonville Center
08:12PM 29.5817 -83.0478 348° North 447 514 33,700 900 Climbing Jacksonville Center
08:13PM 29.6986 -83.0958 340° North 447 514 34,400 720 Climbing Jacksonville Center
08:14PM 29.8111 -83.1486 338° Northwest 439 505 35,200 780 Climbing Jacksonville Center
08:15PM 29.9278 -83.2017 338° Northwest 445 512 36,000 360 Climbing Jacksonville Center
08:16PM 30.0572 -83.2622 338° Northwest 445 512 36,000  Level Jacksonville Center
08:17PM 30.1739 -83.3156 338° Northwest 450 518 36,000  Level Jacksonville Center
08:18PM 30.2906 -83.3714 338° Northwest 450 518 36,000 -60 Level Jacksonville Center
08:19PM 30.4053 -83.4250 338° Northwest 455 524 35,900  Descending Jacksonville Center
08:20PM 30.5200 -83.4786 338° Northwest 455 524 36,000  Climbing Jacksonville Center
08:21PM 30.6344 -83.5347 337° Northwest 455 524 36,000  Level Jacksonville Center
08:22PM 30.7469 -83.5864 338° Northwest 447 514 36,000  Level Jacksonville Center
08:23PM 30.8614 -83.6403 338° Northwest 442 509 36,000  Level Jacksonville Center
08:25PM 31.1203 -83.7672 337° Northwest 407 468 36,000  Level Atlanta Center
08:26PM 31.2331 -83.8203 338° Northwest 421 484 36,000  Level Atlanta Center
08:27PM 31.3436 -83.8761 337° Northwest 412 474 36,000  Level Atlanta Center
08:28PM 31.4419 -83.9219 338° Northwest 424 488 36,000  Level Atlanta Center
08:29PM 31.5608 -83.9731 340° North 424 488 36,000  Level Atlanta Center
08:30PM 31.6861 -83.9975 351° North 435 501 36,000  Level Atlanta Center
08:31PM 31.8114 -84.0267 349° North 446 513 36,000  Level Atlanta Center
08:32PM 31.9325 -84.0536 349° North 451 519 36,000  Level Atlanta Center
08:33PM 32.0575 -84.0806 350° North 451 519 36,000  Level Atlanta Center
08:34PM 32.1786 -84.1100 348° North 445 512 36,000  Level Atlanta Center
08:35PM 32.3017 -84.1372 349° North 450 518 36,000  Level Atlanta Center
08:36PM 32.4228 -84.1667 348° North 450 518 36,000  Level Atlanta Center
08:37PM 32.5417 -84.1942 349° North 445 512 36,000  Level Atlanta Center
08:38PM 32.6733 -84.2239 349° North 445 512 36,000  Level Atlanta Center
08:39PM 32.7900 -84.2539 348° North 432 497 36,000  Level Atlanta Center
08:40PM 32.8964 -84.2739 351° North 432 497 36,000  Level Atlanta Center
08:41PM 33.0133 -84.3064 347° North 432 497 36,000  Level Atlanta Center
08:42PM 33.1303 -84.3317 350° North 432 497 36,000  Level Atlanta Center
08:43PM 33.2492 -84.3592 349° North 427 491 36,000  Level Atlanta Center
08:44PM 33.3639 -84.3869 349° North 431 496 36,000  Level Atlanta Center
08:45PM 33.4847 -84.4150 349° North 431 496 36,000  Level Atlanta Center
08:46PM 33.6100 -84.4453 349° North 425 489 36,000  Level Atlanta Center
08:47PM 33.7308 -84.4733 349° North 425 489 36,000  Level Atlanta Center
08:48PM 33.8478 -84.5042 348° North 430 495 36,000  Level Atlanta Center
08:49PM 33.9561 -84.5297 349° North 430 495 36,000  Level Atlanta Center
08:50PM 34.0728 -84.5578 349° North 430 495 36,000  Level Atlanta Center
08:51PM 34.1981 -84.5839 350° North 437 503 36,000  Level Atlanta Center
08:52PM 34.3147 -84.6122 349° North 437 503 36,000  Level Atlanta Center
08:53PM 34.4314 -84.6406 349° North 432 497 36,000  Level Atlanta Center
08:54PM 34.5586 -84.6744 348° North 432 497 36,000  Level Atlanta Center
08:55PM 34.6608 -84.6978 349° North 420 483 36,000  Level Atlanta Center
08:56PM 34.7817 -84.7292 348° North 415 478 36,000  Level Atlanta Center
08:57PM 34.8983 -84.7581 349° North 420 483 36,000  Level Atlanta Center
08:58PM 35.0192 -84.7844 350° North 425 489 36,000  Level Atlanta Center
08:59PM 35.1358 -84.8158 348° North 431 496 36,000  Level Atlanta Center
09:00PM 35.2525 -84.8450 348° North 431 496 36,000  Level Atlanta Center
09:01PM 35.3692 -84.8742 348° North 426 490 36,000  Level Atlanta Center
09:02PM 35.4878 -84.9033 349° North 431 496 36,000  Level Atlanta Center
09:03PM 35.6044 -84.9328 348° North 431 496 36,000  Level Atlanta Center
09:04PM 35.7272 -84.9647 348° North 431 496 36,000  Level Atlanta Center
09:06PM 35.9264 -85.0117 349° North 427 491 36,000  Level Indianapolis Center
09:07PM 36.0361 -85.0397 348° North 423 487 36,000  Level Indianapolis Center
09:08PM 36.1531 -85.0689 349° North 425 489 36,000  Level Indianapolis Center
09:09PM 36.2692 -85.0989 348° North 424 488 36,000  Level Indianapolis Center
09:10PM 36.3856 -85.1278 349° North 425 489 36,000  Level Indianapolis Center
09:11PM 36.5022 -85.1581 348° North 427 491 36,000  Level Indianapolis Center
09:12PM 36.6192 -85.1883 348° North 427 491 36,000  Level Indianapolis Center
09:13PM 36.7353 -85.2189 348° North 426 490 36,000  Level Indianapolis Center
09:14PM 36.8506 -85.2489 348° North 424 488 36,000  Level Indianapolis Center
09:15PM 36.9669 -85.2781 349° North 425 489 36,000  Level Indianapolis Center
09:16PM 37.0944 -85.3106 349° North 426 490 36,000  Level Indianapolis Center
09:17PM 37.2114 -85.3417 348° North 428 493 36,000  Level Indianapolis Center
09:18PM 37.3281 -85.3722 348° North 425 489 36,000  Level Indianapolis Center
09:19PM 37.4439 -85.4019 348° North 425 489 36,000  Level Indianapolis Center
09:20PM 37.5606 -85.4331 348° North 426 490 36,000  Level Indianapolis Center
09:21PM 37.6769 -85.4653 348° North 425 489 36,000  Level Indianapolis Center
09:22PM 37.7953 -85.4958 348° North 431 496 36,000  Level Indianapolis Center
09:23PM 37.9153 -85.5275 348° North 438 504 36,000 -240 Level Indianapolis Center
09:24PM 38.0328 -85.5578 349° North 433 498 35,600 -540 Descending Indianapolis Center
09:25PM 38.1492 -85.5867 349° North 428 493 35,000 -300 Descending Indianapolis Center
09:26PM 38.2672 -85.6086 352° North 427 491 35,000  Level Indianapolis Center
09:27PM 38.3847 -85.6308 352° North 427 491 35,000  Level Indianapolis Center
09:28PM 38.5025 -85.6544 351° North 426 490 35,000  Level Indianapolis Center
09:29PM 38.6192 -85.6756 352° North 425 489 35,000 -420 Level Indianapolis Center
09:30PM 38.7364 -85.6983 351° North 425 489 34,200 -540 Descending Indianapolis Center
09:31PM 38.8525 -85.7219 351° North 422 486 34,000 -120 Descending Indianapolis Center
09:32PM 38.9911 -85.7486 351° North 420 483 34,000  Level Indianapolis Center
09:33PM 39.1064 -85.7733 351° North 419 482 34,000  Level Indianapolis Center
09:34PM 39.2203 -85.7936 352° North 414 476 34,000  Level Indianapolis Center
09:35PM 39.3350 -85.8164 351° North 417 480 34,000  Level Indianapolis Center
09:36PM 39.4514 -85.8403 351° North 420 483 34,000  Level Indianapolis Center
09:37PM 39.5678 -85.8633 351° North 421 484 34,000  Level Indianapolis Center
09:38PM 39.6833 -85.8858 351° North 420 483 34,000  Level Indianapolis Center
09:39PM 39.7950 -85.9094 351° North 418 481 34,000  Level Indianapolis Center
09:40PM 39.9108 -85.9322 351° North 417 480 34,000  Level Indianapolis Center
09:41PM 40.0278 -85.9556 351° North 414 476 34,000  Level Indianapolis Center
09:42PM 40.1442 -85.9789 351° North 419 482 34,000 -480 Level Indianapolis Center
09:43PM 40.1778 -85.9839 354° North 417 480 33,400 -2,400 Descending Chicago Center
09:44PM 40.2900 -86.0111 350° North 413 475 30,900 -2,520 Descending Chicago Center
09:45PM 40.3983 -86.0308 352° North 400 460 28,400 -2,100 Descending Chicago Center
09:46PM 40.4886 -86.0919 333° Northwest 375 432 26,700 -1,260 Descending Chicago Center
09:47PM 40.5717 -86.1764 322° Northwest 371 427 25,900 -900 Descending Chicago Center
09:48PM 40.6561 -86.2639 322° Northwest 381 438 24,900 -1,200 Descending Chicago Center
09:49PM 40.7406 -86.3514 322° Northwest 385 443 23,500 -2,100 Descending Chicago Center
09:50PM 40.8208 -86.4331 322° Northwest 368 423 20,700 -2,640 Descending Chicago Center
09:51PM 40.8983 -86.5139 322° Northwest 355 409 18,200 -2,280 Descending Chicago Center
09:52PM 40.9722 -86.5886 323° Northwest 340 391 16,100 -2,340 Descending Chicago Center
09:53PM 41.0431 -86.6628 322° Northwest 326 375 13,600 -2,520 Descending Chicago Center
09:54PM 41.1208 -86.7439 322° Northwest 313 360 11,100 -1,620 Descending Chicago Center
09:55PM 41.1869 -86.8125 322° Northwest 306 352 10,400 -600 Descending Chicago Center
09:56PM 41.2558 -86.8853 322° Northwest 315 362 10,000 -240 Descending Chicago Center
09:57PM 41.3253 -86.9581 322° Northwest 319 367 10,000  Level Chicago Center
09:58PM 41.3853 -87.0419 314° West 321 369 10,000  Level Chicago Center
09:59PM 41.4258 -87.1411 299° West 310 357 10,000  Level Chicago Center
09:59PM 41.4500 -87.2000 299° West 313 360 10,000 -120 Level Chicago TRACON
10:00PM 41.5000 -87.3000 304° West 308 354 9,900 -300 Descending Chicago TRACON
10:01PM 41.5167 -87.3667 288° West 260 299 9,500 -840 Descending Chicago TRACON
10:02PM 41.5419 -87.4206 302° West 254 292 8,700 -1,500 Descending Chicago Center
10:03PM 41.5811 -87.5167 299° West 248 285 6,900 -1,620 Descending Chicago Center
10:04PM 41.6142 -87.5958 299° West 247 284 5,500 -1,440 Descending Chicago Center
10:05PM 41.6461 -87.6742 299° West 245 282 4,100 -1,440 Descending Chicago Center
10:05PM 41.6500 -87.7000 281° West 239 275 3,700 -960 Descending Chicago TRACON
10:06PM 41.6833 -87.7667 304° West 220 253 2,900 -900 Descending Chicago TRACON
10:07PM 41.7167 -87.8167 312° West 173 199 2,100 -840 Descending Chicago TRACON
10:08PM 41.7500 -87.8000 20° North 126 145 1,400 -720 Descending Chicago TRACON